sensor_id;sensor_type;location;lat;lon;timestamp;P1;durP1;ratioP1;P2;durP2;ratioP2
85701;SDS011;76139;50.888;3.882;2024-03-08T00:02:03;22.80;;;12.57;;
85701;SDS011;76139;50.888;3.882;2024-03-08T00:04:29;23.73;;;14.02;;
85701;SDS011;76139;50.888;3.882;2024-03-08T00:06:55;23.33;;;13.45;;
85701;SDS011;76139;50.888;3.882;2024-03-08T00:09:21;24.50;;;12.63;;
85701;SDS011;76139;50.888;3.882;2024-03-08T00:11:47;24.08;;;13.15;;
85701;SDS011;76139;50.888;3.882;2024-03-08T00:14:15;25.05;;;13.63;;
85701;SDS011;76139;50.888;3.882;2024-03-08T00:16:41;24.55;;;12.55;;
85701;SDS011;76139;50.888;3.882;2024-03-08T00:19:09;22.30;;;12.10;;
85701;SDS011;76139;50.888;3.882;2024-03-08T00:21:35;24.83;;;12.75;;
85701;SDS011;76139;50.888;3.882;2024-03-08T00:24:01;22.88;;;12.68;;
85701;SDS011;76139;50.888;3.882;2024-03-08T00:26:27;22.65;;;12.45;;
85701;SDS011;76139;50.888;3.882;2024-03-08T00:28:54;22.25;;;12.48;;
85701;SDS011;76139;50.888;3.882;2024-03-08T00:31:20;21.20;;;12.73;;
85701;SDS011;76139;50.888;3.882;2024-03-08T00:33:47;25.92;;;12.00;;
85701;SDS011;76139;50.888;3.882;2024-03-08T00:36:12;24.70;;;12.98;;
85701;SDS011;76139;50.888;3.882;2024-03-08T00:38:38;29.20;;;13.32;;
85701;SDS011;76139;50.888;3.882;2024-03-08T00:41:04;20.40;;;11.90;;
85701;SDS011;76139;50.888;3.882;2024-03-08T00:43:29;22.17;;;11.52;;
85701;SDS011;76139;50.888;3.882;2024-03-08T00:45:55;22.17;;;12.18;;
85701;SDS011;76139;50.888;3.882;2024-03-08T00:48:22;22.75;;;11.73;;
85701;SDS011;76139;50.888;3.882;2024-03-08T00:50:48;21.98;;;12.05;;
85701;SDS011;76139;50.888;3.882;2024-03-08T00:53:14;21.95;;;12.05;;
85701;SDS011;76139;50.888;3.882;2024-03-08T00:55:40;20.45;;;11.05;;
85701;SDS011;76139;50.888;3.882;2024-03-08T00:58:05;21.10;;;11.38;;
85701;SDS011;76139;50.888;3.882;2024-03-08T01:00:31;24.50;;;12.98;;
85701;SDS011;76139;50.888;3.882;2024-03-08T01:02:58;24.63;;;12.43;;
85701;SDS011;76139;50.888;3.882;2024-03-08T01:05:25;25.83;;;13.50;;
85701;SDS011;76139;50.888;3.882;2024-03-08T01:07:50;22.35;;;12.40;;
85701;SDS011;76139;50.888;3.882;2024-03-08T01:10:17;23.55;;;12.73;;
85701;SDS011;76139;50.888;3.882;2024-03-08T01:12:42;25.70;;;12.00;;
85701;SDS011;76139;50.888;3.882;2024-03-08T01:15:09;25.05;;;13.65;;
85701;SDS011;76139;50.888;3.882;2024-03-08T01:17:38;26.13;;;13.65;;
85701;SDS011;76139;50.888;3.882;2024-03-08T01:20:04;25.33;;;13.48;;
85701;SDS011;76139;50.888;3.882;2024-03-08T01:22:30;24.35;;;12.50;;
85701;SDS011;76139;50.888;3.882;2024-03-08T01:24:56;24.33;;;11.93;;
85701;SDS011;76139;50.888;3.882;2024-03-08T01:27:22;24.52;;;13.43;;
85701;SDS011;76139;50.888;3.882;2024-03-08T01:29:49;23.30;;;12.15;;
85701;SDS011;76139;50.888;3.882;2024-03-08T01:32:16;24.60;;;13.45;;
85701;SDS011;76139;50.888;3.882;2024-03-08T01:34:42;26.73;;;13.60;;
85701;SDS011;76139;50.888;3.882;2024-03-08T01:37:10;25.50;;;12.68;;
85701;SDS011;76139;50.888;3.882;2024-03-08T01:39:35;24.60;;;12.60;;
85701;SDS011;76139;50.888;3.882;2024-03-08T01:42:01;27.17;;;13.57;;
85701;SDS011;76139;50.888;3.882;2024-03-08T01:44:27;22.98;;;13.18;;
85701;SDS011;76139;50.888;3.882;2024-03-08T01:46:53;26.10;;;12.95;;
85701;SDS011;76139;50.888;3.882;2024-03-08T01:49:20;24.83;;;12.80;;
85701;SDS011;76139;50.888;3.882;2024-03-08T01:51:47;28.45;;;14.00;;
85701;SDS011;76139;50.888;3.882;2024-03-08T01:54:15;24.77;;;13.50;;
85701;SDS011;76139;50.888;3.882;2024-03-08T01:56:43;27.48;;;13.75;;
85701;SDS011;76139;50.888;3.882;2024-03-08T01:59:09;25.25;;;14.05;;
85701;SDS011;76139;50.888;3.882;2024-03-08T02:01:35;26.27;;;14.43;;
85701;SDS011;76139;50.888;3.882;2024-03-08T02:04:01;30.70;;;13.52;;
85701;SDS011;76139;50.888;3.882;2024-03-08T02:06:27;26.58;;;13.63;;
85701;SDS011;76139;50.888;3.882;2024-03-08T02:08:52;26.90;;;13.30;;
85701;SDS011;76139;50.888;3.882;2024-03-08T02:11:18;26.27;;;14.57;;
85701;SDS011;76139;50.888;3.882;2024-03-08T02:13:45;27.10;;;14.00;;
85701;SDS011;76139;50.888;3.882;2024-03-08T02:16:11;27.27;;;14.15;;
85701;SDS011;76139;50.888;3.882;2024-03-08T02:18:37;27.13;;;13.57;;
85701;SDS011;76139;50.888;3.882;2024-03-08T02:21:05;27.92;;;15.13;;
85701;SDS011;76139;50.888;3.882;2024-03-08T02:23:32;26.02;;;14.30;;
85701;SDS011;76139;50.888;3.882;2024-03-08T02:25:58;28.20;;;14.43;;
85701;SDS011;76139;50.888;3.882;2024-03-08T02:28:25;31.38;;;15.65;;
85701;SDS011;76139;50.888;3.882;2024-03-08T02:30:51;31.90;;;15.77;;
85701;SDS011;76139;50.888;3.882;2024-03-08T02:33:21;30.40;;;15.13;;
85701;SDS011;76139;50.888;3.882;2024-03-08T02:35:47;30.77;;;15.35;;
85701;SDS011;76139;50.888;3.882;2024-03-08T02:38:17;25.45;;;14.32;;
85701;SDS011;76139;50.888;3.882;2024-03-08T02:40:49;26.38;;;14.65;;
85701;SDS011;76139;50.888;3.882;2024-03-08T02:43:16;28.98;;;14.40;;
85701;SDS011;76139;50.888;3.882;2024-03-08T02:45:43;31.95;;;15.10;;
85701;SDS011;76139;50.888;3.882;2024-03-08T02:48:10;28.17;;;15.05;;
85701;SDS011;76139;50.888;3.882;2024-03-08T02:50:36;23.63;;;12.82;;
85701;SDS011;76139;50.888;3.882;2024-03-08T02:53:02;27.25;;;15.10;;
85701;SDS011;76139;50.888;3.882;2024-03-08T02:55:29;30.10;;;15.13;;
85701;SDS011;76139;50.888;3.882;2024-03-08T02:57:55;26.80;;;14.43;;
85701;SDS011;76139;50.888;3.882;2024-03-08T03:00:21;29.48;;;15.05;;
85701;SDS011;76139;50.888;3.882;2024-03-08T03:02:48;28.88;;;15.85;;
85701;SDS011;76139;50.888;3.882;2024-03-08T03:05:19;27.17;;;14.82;;
85701;SDS011;76139;50.888;3.882;2024-03-08T03:07:45;28.45;;;14.88;;
85701;SDS011;76139;50.888;3.882;2024-03-08T03:10:11;29.52;;;15.30;;
85701;SDS011;76139;50.888;3.882;2024-03-08T03:12:38;30.50;;;16.45;;
85701;SDS011;76139;50.888;3.882;2024-03-08T03:15:04;30.17;;;15.70;;
85701;SDS011;76139;50.888;3.882;2024-03-08T03:17:31;27.13;;;14.43;;
85701;SDS011;76139;50.888;3.882;2024-03-08T03:19:57;32.58;;;16.48;;
85701;SDS011;76139;50.888;3.882;2024-03-08T03:22:23;27.98;;;16.10;;
85701;SDS011;76139;50.888;3.882;2024-03-08T03:24:50;33.22;;;15.55;;
85701;SDS011;76139;50.888;3.882;2024-03-08T03:27:16;27.50;;;15.18;;
85701;SDS011;76139;50.888;3.882;2024-03-08T03:29:43;31.38;;;17.17;;
85701;SDS011;76139;50.888;3.882;2024-03-08T03:32:14;27.73;;;15.07;;
85701;SDS011;76139;50.888;3.882;2024-03-08T03:34:41;29.83;;;16.00;;
85701;SDS011;76139;50.888;3.882;2024-03-08T03:37:09;29.98;;;15.73;;
85701;SDS011;76139;50.888;3.882;2024-03-08T03:39:38;27.33;;;15.00;;
85701;SDS011;76139;50.888;3.882;2024-03-08T03:42:17;31.50;;;15.40;;
85701;SDS011;76139;50.888;3.882;2024-03-08T03:44:44;28.90;;;16.15;;
85701;SDS011;76139;50.888;3.882;2024-03-08T03:47:14;31.38;;;15.48;;
85701;SDS011;76139;50.888;3.882;2024-03-08T03:49:40;25.48;;;14.45;;
85701;SDS011;76139;50.888;3.882;2024-03-08T03:52:07;30.50;;;15.93;;
85701;SDS011;76139;50.888;3.882;2024-03-08T03:54:34;29.15;;;16.70;;
85701;SDS011;76139;50.888;3.882;2024-03-08T03:57:00;29.15;;;16.63;;
85701;SDS011;76139;50.888;3.882;2024-03-08T03:59:26;28.10;;;15.88;;
85701;SDS011;76139;50.888;3.882;2024-03-08T04:01:52;30.45;;;17.08;;
85701;SDS011;76139;50.888;3.882;2024-03-08T04:04:19;32.63;;;16.33;;
85701;SDS011;76139;50.888;3.882;2024-03-08T04:06:49;29.45;;;16.67;;
85701;SDS011;76139;50.888;3.882;2024-03-08T04:09:16;27.83;;;17.20;;
85701;SDS011;76139;50.888;3.882;2024-03-08T04:11:44;27.38;;;16.10;;
85701;SDS011;76139;50.888;3.882;2024-03-08T04:14:10;26.67;;;15.45;;
85701;SDS011;76139;50.888;3.882;2024-03-08T04:16:37;29.23;;;16.42;;
85701;SDS011;76139;50.888;3.882;2024-03-08T04:19:02;28.05;;;16.95;;
85701;SDS011;76139;50.888;3.882;2024-03-08T04:21:32;32.72;;;18.23;;
85701;SDS011;76139;50.888;3.882;2024-03-08T04:23:58;32.83;;;16.85;;
85701;SDS011;76139;50.888;3.882;2024-03-08T04:26:23;32.67;;;16.88;;
85701;SDS011;76139;50.888;3.882;2024-03-08T04:28:51;28.27;;;16.10;;
85701;SDS011;76139;50.888;3.882;2024-03-08T04:31:16;31.30;;;18.23;;
85701;SDS011;76139;50.888;3.882;2024-03-08T04:33:42;30.45;;;17.02;;
85701;SDS011;76139;50.888;3.882;2024-03-08T04:36:09;30.95;;;17.58;;
85701;SDS011;76139;50.888;3.882;2024-03-08T04:38:38;30.10;;;16.83;;
85701;SDS011;76139;50.888;3.882;2024-03-08T04:41:06;29.00;;;17.60;;
85701;SDS011;76139;50.888;3.882;2024-03-08T04:43:32;28.60;;;16.30;;
85701;SDS011;76139;50.888;3.882;2024-03-08T04:45:58;31.80;;;17.77;;
85701;SDS011;76139;50.888;3.882;2024-03-08T04:48:24;31.60;;;17.63;;
85701;SDS011;76139;50.888;3.882;2024-03-08T04:50:51;29.45;;;16.08;;
85701;SDS011;76139;50.888;3.882;2024-03-08T04:53:18;36.88;;;18.65;;
85701;SDS011;76139;50.888;3.882;2024-03-08T04:55:44;31.77;;;18.25;;
85701;SDS011;76139;50.888;3.882;2024-03-08T04:58:10;30.50;;;17.77;;
85701;SDS011;76139;50.888;3.882;2024-03-08T05:00:36;31.40;;;17.05;;
85701;SDS011;76139;50.888;3.882;2024-03-08T05:03:01;28.60;;;16.88;;
85701;SDS011;76139;50.888;3.882;2024-03-08T05:05:27;28.45;;;16.70;;
85701;SDS011;76139;50.888;3.882;2024-03-08T05:07:54;29.98;;;17.88;;
85701;SDS011;76139;50.888;3.882;2024-03-08T05:10:19;30.50;;;17.10;;
85701;SDS011;76139;50.888;3.882;2024-03-08T05:12:45;28.98;;;17.80;;
85701;SDS011;76139;50.888;3.882;2024-03-08T05:15:11;29.80;;;17.17;;
85701;SDS011;76139;50.888;3.882;2024-03-08T05:17:36;27.27;;;16.95;;
85701;SDS011;76139;50.888;3.882;2024-03-08T05:20:02;35.30;;;18.65;;
85701;SDS011;76139;50.888;3.882;2024-03-08T05:22:29;30.63;;;17.00;;
85701;SDS011;76139;50.888;3.882;2024-03-08T05:24:54;30.10;;;17.92;;
85701;SDS011;76139;50.888;3.882;2024-03-08T05:27:20;33.03;;;16.48;;
85701;SDS011;76139;50.888;3.882;2024-03-08T05:29:46;27.80;;;16.55;;
85701;SDS011;76139;50.888;3.882;2024-03-08T05:32:12;31.77;;;17.23;;
85701;SDS011;76139;50.888;3.882;2024-03-08T05:34:37;32.17;;;18.33;;
85701;SDS011;76139;50.888;3.882;2024-03-08T05:37:03;30.20;;;17.05;;
85701;SDS011;76139;50.888;3.882;2024-03-08T05:39:29;33.33;;;18.13;;
85701;SDS011;76139;50.888;3.882;2024-03-08T05:41:55;33.47;;;18.55;;
85701;SDS011;76139;50.888;3.882;2024-03-08T05:44:21;34.05;;;18.05;;
85701;SDS011;76139;50.888;3.882;2024-03-08T05:46:46;31.55;;;17.38;;
85701;SDS011;76139;50.888;3.882;2024-03-08T05:49:12;29.90;;;16.17;;
85701;SDS011;76139;50.888;3.882;2024-03-08T05:51:38;32.85;;;17.40;;
85701;SDS011;76139;50.888;3.882;2024-03-08T05:54:05;33.20;;;17.23;;
85701;SDS011;76139;50.888;3.882;2024-03-08T05:56:33;28.73;;;18.00;;
85701;SDS011;76139;50.888;3.882;2024-03-08T05:59:00;34.47;;;17.00;;
85701;SDS011;76139;50.888;3.882;2024-03-08T06:01:26;30.85;;;17.17;;
85701;SDS011;76139;50.888;3.882;2024-03-08T06:03:53;29.83;;;16.52;;
85701;SDS011;76139;50.888;3.882;2024-03-08T06:06:21;30.90;;;16.92;;
85701;SDS011;76139;50.888;3.882;2024-03-08T06:08:47;30.42;;;17.67;;
85701;SDS011;76139;50.888;3.882;2024-03-08T06:11:14;30.02;;;16.58;;
85701;SDS011;76139;50.888;3.882;2024-03-08T06:13:42;31.83;;;17.35;;
85701;SDS011;76139;50.888;3.882;2024-03-08T06:16:08;30.00;;;16.90;;
85701;SDS011;76139;50.888;3.882;2024-03-08T06:18:34;31.05;;;16.15;;
85701;SDS011;76139;50.888;3.882;2024-03-08T06:21:04;31.77;;;17.42;;
85701;SDS011;76139;50.888;3.882;2024-03-08T06:23:37;33.90;;;17.70;;
85701;SDS011;76139;50.888;3.882;2024-03-08T06:26:06;31.83;;;17.05;;
85701;SDS011;76139;50.888;3.882;2024-03-08T06:28:32;34.25;;;17.58;;
85701;SDS011;76139;50.888;3.882;2024-03-08T06:30:58;30.70;;;15.88;;
85701;SDS011;76139;50.888;3.882;2024-03-08T06:33:24;29.63;;;16.50;;
85701;SDS011;76139;50.888;3.882;2024-03-08T06:35:53;33.72;;;18.73;;
85701;SDS011;76139;50.888;3.882;2024-03-08T06:38:22;34.15;;;18.45;;
85701;SDS011;76139;50.888;3.882;2024-03-08T06:40:51;31.70;;;17.83;;
85701;SDS011;76139;50.888;3.882;2024-03-08T06:43:17;34.33;;;18.35;;
85701;SDS011;76139;50.888;3.882;2024-03-08T06:45:46;32.80;;;18.50;;
85701;SDS011;76139;50.888;3.882;2024-03-08T06:48:18;32.67;;;17.67;;
85701;SDS011;76139;50.888;3.882;2024-03-08T06:50:44;33.03;;;17.15;;
85701;SDS011;76139;50.888;3.882;2024-03-08T06:53:10;33.72;;;18.80;;
85701;SDS011;76139;50.888;3.882;2024-03-08T06:55:37;29.65;;;16.23;;
85701;SDS011;76139;50.888;3.882;2024-03-08T06:58:02;33.10;;;17.88;;
85701;SDS011;76139;50.888;3.882;2024-03-08T07:00:28;33.75;;;17.73;;
85701;SDS011;76139;50.888;3.882;2024-03-08T07:02:55;30.80;;;17.13;;
85701;SDS011;76139;50.888;3.882;2024-03-08T07:05:26;32.40;;;18.58;;
85701;SDS011;76139;50.888;3.882;2024-03-08T07:07:55;30.52;;;17.13;;
85701;SDS011;76139;50.888;3.882;2024-03-08T07:10:21;28.05;;;16.77;;
85701;SDS011;76139;50.888;3.882;2024-03-08T07:12:49;27.40;;;16.20;;
85701;SDS011;76139;50.888;3.882;2024-03-08T07:15:15;30.45;;;17.65;;
85701;SDS011;76139;50.888;3.882;2024-03-08T07:17:44;31.83;;;18.42;;
85701;SDS011;76139;50.888;3.882;2024-03-08T07:20:11;29.73;;;17.35;;
85701;SDS011;76139;50.888;3.882;2024-03-08T07:22:38;31.67;;;17.58;;
85701;SDS011;76139;50.888;3.882;2024-03-08T07:25:07;28.42;;;16.67;;
85701;SDS011;76139;50.888;3.882;2024-03-08T07:28:02;33.20;;;16.95;;
85701;SDS011;76139;50.888;3.882;2024-03-08T07:30:29;30.80;;;16.77;;
85701;SDS011;76139;50.888;3.882;2024-03-08T07:33:20;28.77;;;16.88;;
85701;SDS011;76139;50.888;3.882;2024-03-08T07:35:47;28.90;;;16.92;;
85701;SDS011;76139;50.888;3.882;2024-03-08T07:38:15;28.35;;;17.40;;
85701;SDS011;76139;50.888;3.882;2024-03-08T07:40:41;30.15;;;17.52;;
85701;SDS011;76139;50.888;3.882;2024-03-08T07:43:10;32.55;;;17.42;;
85701;SDS011;76139;50.888;3.882;2024-03-08T07:45:37;29.23;;;17.80;;
85701;SDS011;76139;50.888;3.882;2024-03-08T07:48:03;27.42;;;15.80;;
85701;SDS011;76139;50.888;3.882;2024-03-08T07:50:34;25.25;;;16.63;;
85701;SDS011;76139;50.888;3.882;2024-03-08T07:53:06;26.83;;;15.27;;
85701;SDS011;76139;50.888;3.882;2024-03-08T07:55:33;27.73;;;15.93;;
85701;SDS011;76139;50.888;3.882;2024-03-08T07:58:00;27.65;;;15.95;;
85701;SDS011;76139;50.888;3.882;2024-03-08T08:00:29;28.17;;;17.52;;
85701;SDS011;76139;50.888;3.882;2024-03-08T08:02:56;27.30;;;16.23;;
85701;SDS011;76139;50.888;3.882;2024-03-08T08:05:22;28.70;;;15.95;;
85701;SDS011;76139;50.888;3.882;2024-03-08T08:07:48;23.30;;;15.02;;
85701;SDS011;76139;50.888;3.882;2024-03-08T08:10:14;25.65;;;16.15;;
85701;SDS011;76139;50.888;3.882;2024-03-08T08:12:46;23.30;;;16.20;;
85701;SDS011;76139;50.888;3.882;2024-03-08T08:15:13;22.70;;;15.15;;
85701;SDS011;76139;50.888;3.882;2024-03-08T08:17:40;25.35;;;16.23;;
85701;SDS011;76139;50.888;3.882;2024-03-08T08:20:10;24.92;;;15.02;;
85701;SDS011;76139;50.888;3.882;2024-03-08T08:22:40;23.60;;;16.10;;
85701;SDS011;76139;50.888;3.882;2024-03-08T08:25:10;25.48;;;15.77;;
85701;SDS011;76139;50.888;3.882;2024-03-08T08:27:38;24.05;;;15.80;;
85701;SDS011;76139;50.888;3.882;2024-03-08T08:30:10;23.63;;;15.43;;
85701;SDS011;76139;50.888;3.882;2024-03-08T08:32:36;24.27;;;16.02;;
85701;SDS011;76139;50.888;3.882;2024-03-08T08:35:04;26.35;;;16.13;;
85701;SDS011;76139;50.888;3.882;2024-03-08T08:37:31;23.88;;;15.82;;
85701;SDS011;76139;50.888;3.882;2024-03-08T08:39:57;23.83;;;16.30;;
85701;SDS011;76139;50.888;3.882;2024-03-08T08:42:23;20.48;;;15.23;;
85701;SDS011;76139;50.888;3.882;2024-03-08T08:44:49;22.05;;;15.85;;
85701;SDS011;76139;50.888;3.882;2024-03-08T08:47:16;22.75;;;14.90;;
85701;SDS011;76139;50.888;3.882;2024-03-08T08:49:45;23.27;;;14.98;;
85701;SDS011;76139;50.888;3.882;2024-03-08T08:52:14;24.35;;;15.27;;
85701;SDS011;76139;50.888;3.882;2024-03-08T08:54:41;23.77;;;15.73;;
85701;SDS011;76139;50.888;3.882;2024-03-08T08:57:07;23.23;;;15.75;;
85701;SDS011;76139;50.888;3.882;2024-03-08T08:59:33;21.75;;;15.57;;
85701;SDS011;76139;50.888;3.882;2024-03-08T09:02:05;22.63;;;15.32;;
85701;SDS011;76139;50.888;3.882;2024-03-08T09:04:32;20.17;;;14.50;;
85701;SDS011;76139;50.888;3.882;2024-03-08T09:06:57;21.15;;;15.75;;
85701;SDS011;76139;50.888;3.882;2024-03-08T09:09:23;21.27;;;15.23;;
85701;SDS011;76139;50.888;3.882;2024-03-08T09:11:50;20.23;;;15.30;;
85701;SDS011;76139;50.888;3.882;2024-03-08T09:14:16;23.45;;;16.00;;
85701;SDS011;76139;50.888;3.882;2024-03-08T09:16:42;23.33;;;14.98;;
85701;SDS011;76139;50.888;3.882;2024-03-08T09:19:08;21.33;;;15.07;;
85701;SDS011;76139;50.888;3.882;2024-03-08T09:21:36;19.95;;;14.35;;
85701;SDS011;76139;50.888;3.882;2024-03-08T09:24:02;23.85;;;15.48;;
85701;SDS011;76139;50.888;3.882;2024-03-08T09:26:28;21.23;;;14.63;;
85701;SDS011;76139;50.888;3.882;2024-03-08T09:28:53;22.85;;;15.88;;
85701;SDS011;76139;50.888;3.882;2024-03-08T09:31:22;22.70;;;15.20;;
85701;SDS011;76139;50.888;3.882;2024-03-08T09:33:48;22.02;;;14.45;;
85701;SDS011;76139;50.888;3.882;2024-03-08T09:36:14;20.52;;;14.32;;
85701;SDS011;76139;50.888;3.882;2024-03-08T09:38:40;21.02;;;14.57;;
85701;SDS011;76139;50.888;3.882;2024-03-08T09:41:05;20.42;;;14.18;;
85701;SDS011;76139;50.888;3.882;2024-03-08T09:43:31;19.90;;;13.95;;
85701;SDS011;76139;50.888;3.882;2024-03-08T09:45:58;22.45;;;13.38;;
85701;SDS011;76139;50.888;3.882;2024-03-08T09:48:24;22.33;;;14.07;;
85701;SDS011;76139;50.888;3.882;2024-03-08T09:50:51;22.55;;;14.50;;
85701;SDS011;76139;50.888;3.882;2024-03-08T09:53:17;23.05;;;14.45;;
85701;SDS011;76139;50.888;3.882;2024-03-08T09:55:43;23.05;;;14.18;;
85701;SDS011;76139;50.888;3.882;2024-03-08T09:58:13;19.50;;;12.20;;
85701;SDS011;76139;50.888;3.882;2024-03-08T10:00:46;21.55;;;13.40;;
85701;SDS011;76139;50.888;3.882;2024-03-08T10:03:12;22.73;;;13.90;;
85701;SDS011;76139;50.888;3.882;2024-03-08T10:05:40;19.75;;;12.23;;
85701;SDS011;76139;50.888;3.882;2024-03-08T10:08:06;18.95;;;12.73;;
85701;SDS011;76139;50.888;3.882;2024-03-08T10:10:36;22.60;;;13.35;;
85701;SDS011;76139;50.888;3.882;2024-03-08T10:13:05;19.33;;;12.43;;
85701;SDS011;76139;50.888;3.882;2024-03-08T10:15:32;21.90;;;12.15;;
85701;SDS011;76139;50.888;3.882;2024-03-08T10:18:00;19.88;;;12.23;;
85701;SDS011;76139;50.888;3.882;2024-03-08T10:20:30;19.95;;;13.07;;
85701;SDS011;76139;50.888;3.882;2024-03-08T10:23:02;19.85;;;11.93;;
85701;SDS011;76139;50.888;3.882;2024-03-08T10:25:33;19.27;;;12.35;;
85701;SDS011;76139;50.888;3.882;2024-03-08T10:27:59;20.98;;;13.43;;
85701;SDS011;76139;50.888;3.882;2024-03-08T10:30:29;20.23;;;13.63;;
85701;SDS011;76139;50.888;3.882;2024-03-08T10:32:55;22.23;;;13.60;;
85701;SDS011;76139;50.888;3.882;2024-03-08T10:35:21;21.73;;;12.82;;
85701;SDS011;76139;50.888;3.882;2024-03-08T10:37:49;19.33;;;12.18;;
85701;SDS011;76139;50.888;3.882;2024-03-08T10:40:23;20.05;;;13.00;;
85701;SDS011;76139;50.888;3.882;2024-03-08T10:48:16;20.27;;;12.25;;
85701;SDS011;76139;50.888;3.882;2024-03-08T10:50:45;19.75;;;12.38;;
85701;SDS011;76139;50.888;3.882;2024-03-08T10:53:14;21.42;;;12.93;;
85701;SDS011;76139;50.888;3.882;2024-03-08T10:55:40;20.98;;;14.38;;
85701;SDS011;76139;50.888;3.882;2024-03-08T10:58:07;20.75;;;13.35;;
85701;SDS011;76139;50.888;3.882;2024-03-08T11:00:33;18.50;;;13.52;;
85701;SDS011;76139;50.888;3.882;2024-03-08T11:03:00;25.95;;;19.83;;
85701;SDS011;76139;50.888;3.882;2024-03-08T11:05:38;19.45;;;13.30;;
85701;SDS011;76139;50.888;3.882;2024-03-08T11:08:15;19.38;;;13.52;;
85701;SDS011;76139;50.888;3.882;2024-03-08T11:13:34;20.92;;;13.38;;
85701;SDS011;76139;50.888;3.882;2024-03-08T11:16:12;18.30;;;12.43;;
85701;SDS011;76139;50.888;3.882;2024-03-08T11:18:58;18.77;;;12.95;;
85701;SDS011;76139;50.888;3.882;2024-03-08T11:21:31;18.35;;;12.35;;
85701;SDS011;76139;50.888;3.882;2024-03-08T11:27:02;18.80;;;12.68;;
85701;SDS011;76139;50.888;3.882;2024-03-08T11:32:16;17.85;;;11.95;;
85701;SDS011;76139;50.888;3.882;2024-03-08T11:34:45;19.98;;;15.35;;
85701;SDS011;76139;50.888;3.882;2024-03-08T11:37:16;18.08;;;12.40;;
85701;SDS011;76139;50.888;3.882;2024-03-08T11:39:47;20.55;;;13.27;;
85701;SDS011;76139;50.888;3.882;2024-03-08T11:42:14;19.35;;;12.93;;
85701;SDS011;76139;50.888;3.882;2024-03-08T11:44:42;21.77;;;13.75;;
85701;SDS011;76139;50.888;3.882;2024-03-08T11:47:11;20.85;;;12.85;;
85701;SDS011;76139;50.888;3.882;2024-03-08T11:49:37;20.27;;;14.05;;
85701;SDS011;76139;50.888;3.882;2024-03-08T11:52:04;20.08;;;13.48;;
85701;SDS011;76139;50.888;3.882;2024-03-08T11:54:30;20.05;;;13.02;;
85701;SDS011;76139;50.888;3.882;2024-03-08T11:56:56;20.75;;;11.85;;
85701;SDS011;76139;50.888;3.882;2024-03-08T11:59:26;17.58;;;13.23;;
85701;SDS011;76139;50.888;3.882;2024-03-08T12:02:05;18.98;;;12.02;;
85701;SDS011;76139;50.888;3.882;2024-03-08T12:04:31;20.50;;;11.77;;
85701;SDS011;76139;50.888;3.882;2024-03-08T12:07:00;18.27;;;11.50;;
85701;SDS011;76139;50.888;3.882;2024-03-08T12:09:35;19.05;;;12.48;;
85701;SDS011;76139;50.888;3.882;2024-03-08T12:12:05;18.52;;;12.23;;
85701;SDS011;76139;50.888;3.882;2024-03-08T12:14:33;15.82;;;11.65;;
85701;SDS011;76139;50.888;3.882;2024-03-08T12:16:59;18.55;;;11.75;;
85701;SDS011;76139;50.888;3.882;2024-03-08T12:19:26;16.70;;;11.15;;
85701;SDS011;76139;50.888;3.882;2024-03-08T12:21:53;19.58;;;12.82;;
85701;SDS011;76139;50.888;3.882;2024-03-08T12:24:19;17.38;;;11.80;;
85701;SDS011;76139;50.888;3.882;2024-03-08T12:26:46;18.55;;;11.93;;
85701;SDS011;76139;50.888;3.882;2024-03-08T12:29:20;17.80;;;12.10;;
85701;SDS011;76139;50.888;3.882;2024-03-08T12:31:53;19.42;;;13.40;;
85701;SDS011;76139;50.888;3.882;2024-03-08T12:34:19;17.98;;;12.23;;
85701;SDS011;76139;50.888;3.882;2024-03-08T12:36:46;16.00;;;11.38;;
85701;SDS011;76139;50.888;3.882;2024-03-08T12:39:13;17.55;;;12.15;;
85701;SDS011;76139;50.888;3.882;2024-03-08T12:41:41;17.90;;;12.27;;
85701;SDS011;76139;50.888;3.882;2024-03-08T12:44:07;17.63;;;13.10;;
85701;SDS011;76139;50.888;3.882;2024-03-08T12:46:36;17.50;;;12.80;;
85701;SDS011;76139;50.888;3.882;2024-03-08T12:49:06;15.98;;;11.68;;
85701;SDS011;76139;50.888;3.882;2024-03-08T12:51:34;18.90;;;14.30;;
85701;SDS011;76139;50.888;3.882;2024-03-08T12:54:00;19.30;;;13.60;;
85701;SDS011;76139;50.888;3.882;2024-03-08T12:56:32;17.58;;;13.30;;
85701;SDS011;76139;50.888;3.882;2024-03-08T12:58:59;15.48;;;12.45;;
85701;SDS011;76139;50.888;3.882;2024-03-08T13:01:25;16.02;;;12.98;;
85701;SDS011;76139;50.888;3.882;2024-03-08T13:03:57;20.38;;;13.93;;
85701;SDS011;76139;50.888;3.882;2024-03-08T13:06:23;16.80;;;13.73;;
85701;SDS011;76139;50.888;3.882;2024-03-08T13:08:52;18.83;;;14.02;;
85701;SDS011;76139;50.888;3.882;2024-03-08T13:11:19;17.30;;;13.95;;
85701;SDS011;76139;50.888;3.882;2024-03-08T13:13:45;17.67;;;13.63;;
85701;SDS011;76139;50.888;3.882;2024-03-08T13:16:11;17.55;;;13.15;;
85701;SDS011;76139;50.888;3.882;2024-03-08T13:18:40;16.27;;;13.25;;
85701;SDS011;76139;50.888;3.882;2024-03-08T13:21:09;18.13;;;13.30;;
85701;SDS011;76139;50.888;3.882;2024-03-08T13:23:36;17.42;;;13.82;;
85701;SDS011;76139;50.888;3.882;2024-03-08T13:26:09;19.10;;;14.10;;
85701;SDS011;76139;50.888;3.882;2024-03-08T13:28:47;16.80;;;12.70;;
85701;SDS011;76139;50.888;3.882;2024-03-08T13:31:18;15.95;;;12.85;;
85701;SDS011;76139;50.888;3.882;2024-03-08T13:33:44;16.58;;;13.00;;
85701;SDS011;76139;50.888;3.882;2024-03-08T13:36:12;18.10;;;13.85;;
85701;SDS011;76139;50.888;3.882;2024-03-08T13:38:42;15.63;;;12.40;;
85701;SDS011;76139;50.888;3.882;2024-03-08T13:41:12;17.02;;;12.63;;
85701;SDS011;76139;50.888;3.882;2024-03-08T13:43:49;18.83;;;12.18;;
85701;SDS011;76139;50.888;3.882;2024-03-08T13:46:15;16.02;;;12.50;;
85701;SDS011;76139;50.888;3.882;2024-03-08T13:48:41;20.35;;;13.60;;
85701;SDS011;76139;50.888;3.882;2024-03-08T13:51:07;16.88;;;12.68;;
85701;SDS011;76139;50.888;3.882;2024-03-08T13:53:37;18.25;;;12.70;;
85701;SDS011;76139;50.888;3.882;2024-03-08T13:56:04;18.05;;;12.07;;
85701;SDS011;76139;50.888;3.882;2024-03-08T13:58:30;16.20;;;11.73;;
85701;SDS011;76139;50.888;3.882;2024-03-08T14:00:56;17.63;;;11.93;;
85701;SDS011;76139;50.888;3.882;2024-03-08T14:03:22;16.02;;;11.10;;
85701;SDS011;76139;50.888;3.882;2024-03-08T14:05:49;19.48;;;11.68;;
85701;SDS011;76139;50.888;3.882;2024-03-08T14:08:15;16.95;;;12.10;;
85701;SDS011;76139;50.888;3.882;2024-03-08T14:10:42;16.30;;;11.25;;
85701;SDS011;76139;50.888;3.882;2024-03-08T14:13:07;16.23;;;11.48;;
85701;SDS011;76139;50.888;3.882;2024-03-08T14:15:36;16.25;;;10.68;;
85701;SDS011;76139;50.888;3.882;2024-03-08T14:18:06;16.80;;;11.05;;
85701;SDS011;76139;50.888;3.882;2024-03-08T14:20:32;16.58;;;11.10;;
85701;SDS011;76139;50.888;3.882;2024-03-08T14:22:58;17.25;;;10.82;;
85701;SDS011;76139;50.888;3.882;2024-03-08T14:25:23;17.83;;;10.93;;
85701;SDS011;76139;50.888;3.882;2024-03-08T14:27:50;20.17;;;10.98;;
85701;SDS011;76139;50.888;3.882;2024-03-08T14:30:23;17.77;;;11.80;;
85701;SDS011;76139;50.888;3.882;2024-03-08T14:33:04;17.33;;;10.95;;
85701;SDS011;76139;50.888;3.882;2024-03-08T14:35:30;17.88;;;10.95;;
85701;SDS011;76139;50.888;3.882;2024-03-08T14:37:57;19.27;;;12.20;;